Time;durP1;ratioP1;P1;durP2;ratioP2;P2;SDS_P1;SDS_P2;PMS_P1;PMS_P2;Temp;Humidity;BMP_temperature;BMP_pressure;BME280_temperature;BME280_humidity;BME280_pressure;Samples;Min_cycle;Max_cycle;Signal;HPM_P1;HPM_P2
2021/06/04 00:00:37;;;;;;;25.98;15.95;;;17.40;99.90;;;;;;4997377;28;20073;-87
2021/06/04 00:03:11;;;;;;;31.05;15.93;;;17.50;99.90;;;;;;4992252;28;20031;-85
2021/06/04 00:05:42;;;;;;;28.90;16.40;;;17.50;99.90;;;;;;4994482;28;20039;-86
2021/06/04 00:08:09;;;;;;;25.30;15.95;;;17.40;99.90;;;;;;4987630;28;20019;-87
2021/06/04 00:10:39;;;;;;;25.48;17.85;;;17.40;99.90;;;;;;4996355;28;20030;-87
2021/06/04 00:13:25;;;;;;;23.75;15.50;;;17.40;99.90;;;;;;4982024;28;20025;-87
2021/06/04 00:16:01;;;;;;;26.35;16.17;;;17.30;99.90;;;;;;4996221;28;20034;-87
2021/06/04 00:18:29;;;;;;;29.00;15.98;;;17.30;99.90;;;;;;4991489;28;20054;-86
2021/06/04 00:20:55;;;;;;;24.63;15.43;;;17.40;99.90;;;;;;4996423;28;20033;-87
2021/06/04 00:23:21;;;;;;;23.85;15.75;;;17.40;99.90;;;;;;4991944;28;20053;-87
2021/06/04 00:25:46;;;;;;;22.23;15.48;;;17.40;99.90;;;;;;5008849;28;20038;-87
2021/06/04 00:28:12;;;;;;;27.58;16.83;;;17.40;99.90;;;;;;4997078;28;20493;-88
2021/06/04 00:30:38;;;;;;;18.50;14.52;;;17.40;99.90;;;;;;5009077;28;20566;-88
2021/06/04 00:33:05;;;;;;;21.08;14.88;;;17.40;99.90;;;;;;4990603;28;20018;-87
2021/06/04 00:35:32;;;;;;;22.40;13.93;;;17.30;99.90;;;;;;4994097;28;20023;-86
2021/06/04 00:37:58;;;;;;;19.63;13.20;;;17.30;99.90;;;;;;4992705;28;20088;-87
2021/06/04 00:40:29;;;;;;;18.92;12.48;;;17.30;99.90;;;;;;4993922;28;20464;-88
2021/06/04 00:42:56;;;;;;;17.63;11.73;;;17.30;99.90;;;;;;4991661;28;20042;-88
2021/06/04 00:45:27;;;;;;;19.70;11.20;;;17.30;99.90;;;;;;4994489;28;20548;-87
2021/06/04 00:47:53;;;;;;;14.88;11.40;;;17.30;99.90;;;;;;4994655;28;20109;-88
2021/06/04 00:51:00;;;;;;;13.52;11.02;;;17.30;99.90;;;;;;4993899;28;20026;-88
2021/06/04 00:53:27;;;;;;;14.15;11.20;;;17.30;99.90;;;;;;4991126;28;20042;-88
2021/06/04 00:55:54;;;;;;;18.00;12.00;;;17.30;99.90;;;;;;4992674;28;20511;-88
2021/06/04 00:58:29;;;;;;;17.48;11.30;;;17.30;99.90;;;;;;4994088;28;20021;-87
2021/06/04 01:00:59;;;;;;;18.98;11.45;;;17.40;99.90;;;;;;4996472;28;20041;-88
2021/06/04 01:03:27;;;;;;;17.58;12.45;;;17.40;99.90;;;;;;4991389;28;20391;-88
2021/06/04 01:06:19;;;;;;;17.27;11.73;;;17.40;99.90;;;;;;4994616;28;20069;-87
2021/06/04 01:09:15;;;;;;;15.70;12.27;;;17.40;99.90;;;;;;4990677;28;20038;-87
2021/06/04 01:12:01;;;;;;;17.30;12.20;;;17.40;99.90;;;;;;4991747;28;20027;-88
2021/06/04 01:14:44;;;;;;;18.08;11.65;;;17.50;99.90;;;;;;4981082;28;20034;-88
2021/06/04 01:17:28;;;;;;;21.00;13.25;;;17.50;99.90;;;;;;4999568;28;20069;-88
2021/06/04 01:20:36;;;;;;;15.07;12.55;;;17.50;99.90;;;;;;4992084;28;20033;-88
2021/06/04 01:23:05;;;;;;;19.65;13.02;;;17.50;99.90;;;;;;5003228;28;20040;-88
2021/06/04 01:25:55;;;;;;;14.95;12.70;;;17.50;99.90;;;;;;4993448;28;20418;-88
2021/06/04 01:28:26;;;;;;;19.73;12.13;;;17.50;99.90;;;;;;4990756;28;20023;-88
2021/06/04 01:31:05;;;;;;;18.35;11.48;;;17.50;99.90;;;;;;4995610;28;20040;-87
2021/06/04 01:33:48;;;;;;;15.00;13.38;;;17.40;99.90;;;;;;4993035;28;20530;-88
2021/06/04 01:36:23;;;;;;;16.83;12.60;;;17.40;99.90;;;;;;4996002;28;20025;-88
2021/06/04 01:38:51;;;;;;;18.67;12.60;;;17.40;99.90;;;;;;5005862;28;20027;-88
2021/06/04 01:41:20;;;;;;;19.52;12.05;;;17.40;99.90;;;;;;4992250;28;20039;-88
2021/06/04 01:43:58;;;;;;;17.60;11.60;;;17.50;99.90;;;;;;4990680;28;20040;-88
2021/06/04 01:46:29;;;;;;;17.27;12.15;;;17.50;99.90;;;;;;4996022;28;20046;-88
2021/06/04 01:49:00;;;;;;;15.40;11.95;;;17.50;99.90;;;;;;4991108;28;20078;-89
2021/06/04 01:51:31;;;;;;;20.80;13.70;;;17.50;99.90;;;;;;4997315;28;20031;-88
2021/06/04 01:54:12;;;;;;;20.20;11.75;;;17.50;99.90;;;;;;4987661;28;20455;-88
2021/06/04 01:56:42;;;;;;;18.20;13.27;;;17.50;99.90;;;;;;4994885;28;20039;-89
2021/06/04 01:59:15;;;;;;;13.32;10.85;;;17.50;99.90;;;;;;4990411;28;20014;-88
2021/06/04 02:01:46;;;;;;;17.05;11.73;;;17.50;99.90;;;;;;4999162;28;20041;-88
2021/06/04 02:04:24;;;;;;;14.43;11.18;;;17.60;99.90;;;;;;5003802;28;20022;-89
2021/06/04 02:06:51;;;;;;;16.77;11.65;;;17.60;99.90;;;;;;4999407;28;20026;-88
2021/06/04 02:09:19;;;;;;;16.33;12.13;;;17.70;99.90;;;;;;4990661;28;20076;-88
2021/06/04 02:11:45;;;;;;;18.92;12.02;;;17.80;99.90;;;;;;4991934;28;20494;-89
2021/06/04 02:14:17;;;;;;;15.27;11.95;;;17.80;99.90;;;;;;4991624;28;20026;-90
2021/06/04 02:17:12;;;;;;;16.80;12.40;;;17.70;99.90;;;;;;5001743;28;20157;-88
2021/06/04 02:19:56;;;;;;;20.70;12.10;;;17.80;99.90;;;;;;4980344;28;20493;-89
2021/06/04 02:22:32;;;;;;;14.32;12.30;;;17.70;99.90;;;;;;5011341;28;20493;-88
2021/06/04 02:25:05;;;;;;;21.40;12.90;;;17.70;99.90;;;;;;4996565;28;20047;-88
2021/06/04 02:27:41;;;;;;;17.65;12.32;;;17.70;99.90;;;;;;4984209;28;20255;-88
2021/06/04 02:30:44;;;;;;;16.85;13.15;;;17.70;99.90;;;;;;4990939;28;20497;-89
2021/06/04 02:33:13;;;;;;;22.98;12.32;;;17.70;99.90;;;;;;4981729;28;20038;-88
2021/06/04 02:35:54;;;;;;;18.58;12.95;;;17.70;99.90;;;;;;4994673;28;20034;-88
2021/06/04 02:38:30;;;;;;;18.65;12.55;;;17.80;99.90;;;;;;4995925;28;20018;-89
2021/06/04 02:41:01;;;;;;;17.35;13.13;;;17.70;99.90;;;;;;5010022;28;20176;-88
2021/06/04 02:43:37;;;;;;;22.77;13.55;;;17.70;99.90;;;;;;4989774;28;20097;-89
2021/06/04 02:46:08;;;;;;;15.32;13.43;;;17.70;99.90;;;;;;4994939;28;20034;-89
2021/06/04 02:48:34;;;;;;;22.00;14.15;;;17.70;99.90;;;;;;4989978;28;20025;-90
2021/06/04 02:51:31;;;;;;;23.75;13.90;;;17.80;99.90;;;;;;4995289;28;20109;-88
2021/06/04 02:54:16;;;;;;;19.25;12.77;;;17.80;99.90;;;;;;4995181;28;20038;-89
2021/06/04 02:56:46;;;;;;;21.48;14.40;;;17.70;99.90;;;;;;5009743;28;20030;-88
2021/06/04 02:59:25;;;;;;;20.80;14.00;;;17.80;99.90;;;;;;5009405;28;20106;-88
2021/06/04 03:01:55;;;;;;;26.63;15.30;;;17.80;99.90;;;;;;4999126;28;20068;-88
2021/06/04 03:04:24;;;;;;;23.58;16.25;;;17.70;99.90;;;;;;5000034;28;20057;-88
2021/06/04 03:06:58;;;;;;;26.55;15.75;;;17.60;99.90;;;;;;4998400;28;20254;-88
2021/06/04 03:09:28;;;;;;;20.77;14.33;;;17.60;99.90;;;;;;4992972;28;20050;-89
2021/06/04 03:12:03;;;;;;;23.15;15.05;;;17.60;99.90;;;;;;5000751;28;20311;-88
2021/06/04 03:14:29;;;;;;;22.50;15.77;;;17.60;99.90;;;;;;4993222;28;20030;-88
2021/06/04 03:16:58;;;;;;;24.40;16.52;;;17.60;99.90;;;;;;4995602;28;20037;-88
2021/06/04 03:19:25;;;;;;;22.00;16.10;;;17.60;99.90;;;;;;4992755;28;20085;-88
2021/06/04 03:22:22;;;;;;;24.30;17.40;;;17.70;99.90;;;;;;5001728;28;20037;-89
2021/06/04 03:24:48;;;;;;;21.75;15.57;;;17.70;99.90;;;;;;4986512;28;20500;-89
2021/06/04 03:27:18;;;;;;;27.10;16.80;;;17.70;99.90;;;;;;5003117;28;20453;-89
2021/06/04 03:29:44;;;;;;;26.80;18.35;;;17.80;99.90;;;;;;4980195;28;20113;-88
2021/06/04 03:32:12;;;;;;;30.35;19.70;;;17.90;99.90;;;;;;5016913;28;20125;-89
2021/06/04 03:34:40;;;;;;;29.02;20.05;;;17.90;99.90;;;;;;4993815;28;20026;-89
2021/06/04 03:37:07;;;;;;;29.00;19.85;;;17.90;99.90;;;;;;5013763;28;20037;-89
2021/06/04 03:39:36;;;;;;;41.30;25.60;;;17.90;99.90;;;;;;4993360;28;20117;-89
2021/06/04 03:42:05;;;;;;;45.15;27.83;;;17.90;99.90;;;;;;4997596;28;20034;-89
2021/06/04 03:44:34;;;;;;;40.25;27.27;;;17.80;99.90;;;;;;4989556;28;20110;-89
2021/06/04 03:47:00;;;;;;;39.67;25.77;;;17.90;99.90;;;;;;4997798;28;20034;-88
2021/06/04 03:49:27;;;;;;;38.78;24.08;;;17.90;99.90;;;;;;4992647;28;20149;-88
2021/06/04 03:51:56;;;;;;;36.75;24.08;;;18.00;99.90;;;;;;4995204;28;20053;-88
2021/06/04 03:54:29;;;;;;;32.35;22.65;;;18.00;99.90;;;;;;4991276;28;20605;-89
2021/06/04 03:56:56;;;;;;;32.30;21.23;;;18.00;99.90;;;;;;4995720;28;20031;-88
2021/06/04 03:59:23;;;;;;;31.45;21.60;;;18.00;99.90;;;;;;5006266;28;20132;-88
2021/06/04 04:01:57;;;;;;;29.90;21.15;;;18.00;99.90;;;;;;4998739;28;20034;-89
2021/06/04 04:04:24;;;;;;;35.65;21.80;;;18.00;99.90;;;;;;4996589;28;20035;-89
2021/06/04 04:06:50;;;;;;;30.42;19.73;;;18.00;99.90;;;;;;4995284;28;20084;-89
2021/06/04 04:09:16;;;;;;;33.80;21.95;;;18.00;99.90;;;;;;4992140;28;20045;-88
2021/06/04 04:11:46;;;;;;;32.40;22.33;;;18.00;99.90;;;;;;4997145;28;20559;-88
2021/06/04 04:14:12;;;;;;;33.20;23.90;;;18.10;99.90;;;;;;5007772;28;20505;-89
2021/06/04 04:16:38;;;;;;;32.75;22.67;;;18.00;99.90;;;;;;4997534;28;20067;-88
2021/06/04 04:19:04;;;;;;;33.60;23.83;;;17.90;99.90;;;;;;4992362;28;20046;-88
2021/06/04 04:21:30;;;;;;;39.17;25.20;;;17.90;99.90;;;;;;4995682;28;20122;-89
2021/06/04 04:23:59;;;;;;;40.05;25.13;;;18.00;99.90;;;;;;5001580;28;20045;-89
2021/06/04 04:26:31;;;;;;;37.67;25.30;;;18.00;99.90;;;;;;4999336;28;20037;-89
2021/06/04 04:28:58;;;;;;;37.25;26.23;;;17.90;99.90;;;;;;4994003;28;20415;-88
2021/06/04 04:31:27;;;;;;;39.95;25.63;;;17.80;99.90;;;;;;4996430;28;20038;-89
2021/06/04 04:33:53;;;;;;;40.45;26.27;;;17.90;99.90;;;;;;4996449;28;20238;-89
2021/06/04 04:36:23;;;;;;;40.72;26.13;;;17.90;99.90;;;;;;4995338;28;20022;-89
2021/06/04 04:38:52;;;;;;;43.63;27.65;;;17.90;99.90;;;;;;4997368;28;20407;-88
2021/06/04 04:41:17;;;;;;;41.33;26.98;;;18.00;99.90;;;;;;4992603;28;20038;-89
2021/06/04 04:43:50;;;;;;;45.63;27.80;;;18.00;99.90;;;;;;4991152;28;20467;-90
2021/06/04 04:46:18;;;;;;;44.90;26.77;;;18.00;99.90;;;;;;4998698;28;20487;-88
2021/06/04 04:48:44;;;;;;;52.60;29.48;;;17.90;99.90;;;;;;4990837;28;20033;-88
2021/06/04 04:51:12;;;;;;;41.65;27.52;;;18.00;99.90;;;;;;5000465;28;20030;-89
2021/06/04 04:53:38;;;;;;;38.15;25.77;;;18.00;99.90;;;;;;4990392;28;20394;-89
2021/06/04 04:56:05;;;;;;;42.50;26.38;;;18.00;99.90;;;;;;4996765;28;20113;-89
2021/06/04 04:58:32;;;;;;;43.33;25.55;;;18.00;99.90;;;;;;4999943;28;20117;-89
2021/06/04 05:00:57;;;;;;;38.00;24.58;;;18.00;99.90;;;;;;4994933;28;20037;-88
2021/06/04 05:03:25;;;;;;;40.58;25.90;;;17.90;99.90;;;;;;4990898;28;20023;-88
2021/06/04 05:05:51;;;;;;;39.50;24.90;;;17.90;99.90;;;;;;4994160;28;20089;-89
2021/06/04 05:08:17;;;;;;;42.72;25.60;;;17.90;99.90;;;;;;4995126;28;20026;-89
2021/06/04 05:10:45;;;;;;;34.60;23.77;;;17.80;99.90;;;;;;4993000;28;20037;-89
2021/06/04 05:13:10;;;;;;;37.28;23.45;;;17.80;99.90;;;;;;5006729;28;20430;-88
2021/06/04 05:15:38;;;;;;;35.50;25.00;;;17.90;99.90;;;;;;4992458;28;20069;-89
2021/06/04 05:18:05;;;;;;;42.40;26.25;;;17.90;99.90;;;;;;5005787;28;20057;-89
2021/06/04 05:20:31;;;;;;;44.22;27.30;;;17.80;99.90;;;;;;4993786;28;20506;-91
2021/06/04 05:22:58;;;;;;;42.10;28.30;;;17.80;99.90;;;;;;4998778;28;20031;-91
2021/06/04 05:25:30;;;;;;;41.63;27.23;;;17.80;99.90;;;;;;4990360;28;20517;-90
2021/06/04 05:27:56;;;;;;;42.42;26.23;;;17.70;99.90;;;;;;4994552;28;20023;-89
2021/06/04 05:30:28;;;;;;;49.22;27.58;;;17.80;99.90;;;;;;4989740;28;20049;-89
2021/06/04 05:32:54;;;;;;;53.67;29.65;;;17.80;99.90;;;;;;4996871;28;20052;-90
2021/06/04 05:35:21;;;;;;;45.63;27.83;;;17.70;99.90;;;;;;4995992;28;20026;-90
2021/06/04 05:37:46;;;;;;;52.05;28.67;;;17.60;99.90;;;;;;4988620;28;20019;-89
2021/06/04 05:40:17;;;;;;;46.13;26.52;;;17.60;99.90;;;;;;4990567;28;20033;-89
2021/06/04 05:42:43;;;;;;;45.88;28.45;;;17.60;99.90;;;;;;4992583;28;20039;-90
2021/06/04 05:45:11;;;;;;;39.85;27.95;;;17.60;99.90;;;;;;5006209;28;20018;-89
2021/06/04 05:47:38;;;;;;;37.50;26.25;;;17.60;99.90;;;;;;4987725;28;20115;-90
2021/06/04 05:50:07;;;;;;;32.97;26.00;;;17.50;99.90;;;;;;4991613;28;20030;-89
2021/06/04 05:52:33;;;;;;;32.25;24.92;;;17.50;99.90;;;;;;4993787;28;20018;-88
2021/06/04 05:57:56;;;;;;;38.22;24.85;;;17.40;99.90;;;;;;4961867;23;20062;-88
2021/06/04 06:00:35;;;;;;;42.05;24.42;;;17.10;99.90;;;;;;4953892;28;20241;-88
2021/06/04 06:03:03;;;;;;;32.50;21.35;;;17.00;99.90;;;;;;4965640;28;20027;-89
2021/06/04 06:05:28;;;;;;;37.95;24.15;;;17.00;99.90;;;;;;4954475;28;20565;-88
2021/06/04 06:07:54;;;;;;;39.92;25.40;;;16.80;99.90;;;;;;4979519;28;20113;-88
2021/06/04 06:10:23;;;;;;;39.70;24.80;;;16.80;99.90;;;;;;4969373;28;20376;-88
2021/06/04 06:12:51;;;;;;;38.90;26.10;;;16.70;99.90;;;;;;4961213;28;20182;-86
2021/06/04 06:15:18;;;;;;;43.15;27.77;;;16.60;99.90;;;;;;4956266;28;20023;-88
2021/06/04 06:17:43;;;;;;;38.67;25.88;;;16.60;99.90;;;;;;4964427;28;20503;-88
2021/06/04 06:20:12;;;;;;;51.38;28.30;;;16.60;99.90;;;;;;4956233;28;20031;-88
2021/06/04 06:22:38;;;;;;;43.33;30.10;;;16.60;99.90;;;;;;4943299;28;20423;-78
2021/06/04 06:25:30;;;;;;;35.30;25.77;;;16.80;99.90;;;;;;4943961;28;20126;-78
2021/06/04 06:27:58;;;;;;;39.53;26.40;;;16.80;99.90;;;;;;4961618;28;20034;-78
2021/06/04 06:30:26;;;;;;;33.58;21.83;;;16.70;99.90;;;;;;4957024;28;20022;-79
2021/06/04 06:32:52;;;;;;;39.65;20.77;;;16.70;99.90;;;;;;4963413;28;20019;-78
2021/06/04 06:35:23;;;;;;;35.08;20.20;;;16.70;99.90;;;;;;4956380;28;20031;-77
2021/06/04 06:37:49;;;;;;;37.78;19.73;;;16.70;99.90;;;;;;4953974;29;20036;-77
2021/06/04 06:40:15;;;;;;;35.80;19.20;;;16.60;99.90;;;;;;4954239;28;20058;-78
2021/06/04 06:42:40;;;;;;;30.98;16.80;;;16.60;99.90;;;;;;4952825;29;20037;-77
2021/06/04 06:45:09;;;;;;;28.95;16.35;;;16.60;99.90;;;;;;4955259;28;20492;-78
2021/06/04 06:47:35;;;;;;;27.30;17.13;;;16.60;99.90;;;;;;4958470;28;20015;-76
2021/06/04 06:50:02;;;;;;;31.20;17.10;;;16.60;99.90;;;;;;4954795;28;20030;-78
2021/06/04 06:52:30;;;;;;;29.10;16.75;;;16.60;99.90;;;;;;4976041;28;20400;-78
2021/06/04 06:54:56;;;;;;;25.73;15.15;;;16.50;99.90;;;;;;4969033;28;20027;-78
2021/06/04 06:57:22;;;;;;;25.73;14.65;;;16.50;99.90;;;;;;4962523;28;20043;-77
2021/06/04 06:59:48;;;;;;;25.92;14.93;;;16.50;99.90;;;;;;4953715;28;20197;-78
2021/06/04 07:02:14;;;;;;;23.02;14.43;;;16.40;99.90;;;;;;4963297;28;20178;-78
2021/06/04 07:04:39;;;;;;;30.13;16.58;;;16.40;99.90;;;;;;4955017;28;20071;-78
2021/06/04 07:07:05;;;;;;;27.92;16.63;;;16.30;99.90;;;;;;4964178;28;20031;-78
2021/06/04 07:09:31;;;;;;;30.67;16.58;;;16.30;99.90;;;;;;4957071;28;20404;-78
2021/06/04 07:11:57;;;;;;;27.58;15.63;;;16.30;99.90;;;;;;4959626;28;20023;-78
2021/06/04 07:14:29;;;;;;;26.63;14.57;;;16.30;99.90;;;;;;4958779;28;20046;-78
2021/06/04 07:16:55;;;;;;;27.20;14.93;;;16.20;99.90;;;;;;4957645;28;20058;-78
2021/06/04 07:19:22;;;;;;;30.02;14.00;;;16.20;99.90;;;;;;4959760;28;20031;-78
2021/06/04 07:21:48;;;;;;;22.50;13.23;;;16.30;99.90;;;;;;4958032;28;20023;-79
2021/06/04 07:24:15;;;;;;;23.98;13.93;;;16.30;99.90;;;;;;4960954;28;20034;-78
2021/06/04 07:26:46;;;;;;;22.92;13.52;;;16.30;99.90;;;;;;4964199;28;20503;-78
2021/06/04 07:29:14;;;;;;;21.33;13.55;;;16.40;99.90;;;;;;4953962;28;20098;-78
2021/06/04 07:31:41;;;;;;;20.52;12.88;;;16.40;99.90;;;;;;4977588;28;20046;-79
2021/06/04 07:34:06;;;;;;;20.50;11.48;;;16.50;99.90;;;;;;4954865;28;20034;-79
2021/06/04 07:36:37;;;;;;;14.52;11.18;;;16.60;99.90;;;;;;4955656;28;20027;-79
2021/06/04 07:39:10;;;;;;;15.43;10.65;;;16.50;99.90;;;;;;4958468;28;20063;-79
2021/06/04 07:41:35;;;;;;;16.23;11.35;;;16.50;99.90;;;;;;4955484;28;20515;-79
2021/06/04 07:44:03;;;;;;;14.43;10.35;;;16.50;99.90;;;;;;4959134;28;20042;-79
2021/06/04 07:46:28;;;;;;;15.80;10.60;;;16.60;99.90;;;;;;4957035;28;20365;-79
2021/06/04 07:48:55;;;;;;;13.52;10.15;;;16.60;99.90;;;;;;4960061;28;20042;-79
2021/06/04 07:51:28;;;;;;;15.57;9.27;;;16.60;99.90;;;;;;4958036;28;20383;-79
2021/06/04 07:53:54;;;;;;;13.85;9.35;;;16.60;99.90;;;;;;4953066;28;20042;-79
2021/06/04 07:56:20;;;;;;;10.82;7.18;;;16.60;99.90;;;;;;4958482;28;20051;-80
2021/06/04 07:58:47;;;;;;;11.60;7.07;;;16.70;99.90;;;;;;4953292;28;20019;-79
2021/06/04 08:01:13;;;;;;;10.02;6.93;;;16.70;99.90;;;;;;4960557;28;20125;-80
2021/06/04 08:03:41;;;;;;;10.75;7.38;;;16.70;99.90;;;;;;4953117;29;20019;-79
2021/06/04 08:06:07;;;;;;;8.98;7.18;;;16.80;99.90;;;;;;4957643;28;20415;-79
2021/06/04 08:08:35;;;;;;;8.52;6.05;;;16.80;99.90;;;;;;4954078;28;20538;-79
2021/06/04 08:11:03;;;;;;;7.82;5.07;;;16.70;99.90;;;;;;4956702;28;20507;-79
2021/06/04 08:13:29;;;;;;;8.95;5.47;;;16.60;99.90;;;;;;4954909;28;20023;-78
2021/06/04 08:15:59;;;;;;;9.60;5.30;;;16.60;99.90;;;;;;4957840;28;20037;-80
2021/06/04 08:18:27;;;;;;;5.45;4.07;;;16.70;99.90;;;;;;4967310;28;20388;-79
2021/06/04 08:20:53;;;;;;;5.10;3.28;;;16.80;99.90;;;;;;4955427;28;20041;-79
2021/06/04 08:23:24;;;;;;;5.40;3.45;;;16.70;99.90;;;;;;4963108;28;20023;-79
2021/06/04 08:25:54;;;;;;;4.68;3.40;;;16.60;99.90;;;;;;4953755;28;20038;-78
2021/06/04 08:28:21;;;;;;;4.50;3.67;;;16.60;99.90;;;;;;4959693;28;20033;-79
2021/06/04 08:30:48;;;;;;;4.75;3.50;;;16.60;99.90;;;;;;4953046;28;20507;-78
2021/06/04 08:33:36;;;;;;;3.97;3.55;;;16.70;99.90;;;;;;4960782;28;20079;-78
2021/06/04 08:36:03;;;;;;;4.57;3.60;;;16.70;99.90;;;;;;4954505;28;20122;-79
2021/06/04 08:38:31;;;;;;;4.53;3.78;;;16.60;99.90;;;;;;4957322;28;20062;-78
2021/06/04 08:41:05;;;;;;;4.85;3.83;;;16.60;99.90;;;;;;4955124;28;20035;-78
2021/06/04 08:43:39;;;;;;;;;;;16.50;99.90;;;;;;4952264;28;20023;-78
2021/06/04 08:46:13;;;;;;;7.35;3.88;;;16.50;99.90;;;;;;4955718;28;19957;-78
2021/06/04 08:48:53;;;;;;;5.38;4.15;;;16.50;99.90;;;;;;4958516;28;20074;-78
2021/06/04 08:51:38;;;;;;;4.82;3.80;;;16.60;99.90;;;;;;4956333;28;20031;-78
2021/06/04 08:54:32;;;;;;;3.83;3.40;;;16.50;99.90;;;;;;4959261;28;20035;-84
2021/06/04 08:57:09;;;;;;;5.73;3.60;;;16.60;99.90;;;;;;4966105;28;20134;-75
2021/06/04 08:59:37;;;;;;;4.25;3.30;;;16.70;99.90;;;;;;4945794;29;20689;-74
2021/06/04 09:02:08;;;;;;;5.85;2.78;;;16.80;99.90;;;;;;4959358;28;20035;-74
2021/06/04 09:04:58;;;;;;;3.85;3.00;;;16.80;99.90;;;;;;4952159;28;20531;-73
2021/06/04 09:07:33;;;;;;;2.92;2.63;;;16.60;99.90;;;;;;4961115;28;20034;-73
2021/06/04 09:10:16;;;;;;;3.47;2.85;;;16.50;99.90;;;;;;4951798;28;20629;-73
2021/06/04 09:12:57;;;;;;;3.28;2.63;;;16.60;99.90;;;;;;4964312;28;20031;-73
2021/06/04 09:15:26;;;;;;;3.92;2.97;;;16.60;99.90;;;;;;4953956;28;20027;-74
2021/06/04 09:18:07;;;;;;;7.28;3.38;;;16.70;99.90;;;;;;4962653;28;20019;-73
2021/06/04 09:20:55;;;;;;;8.93;3.25;;;16.80;99.90;;;;;;4953692;28;20410;-72
2021/06/04 09:23:43;;;;;;;4.00;2.90;;;16.90;99.90;;;;;;4951022;28;20043;-73
2021/06/04 09:26:12;;;;;;;3.92;2.63;;;16.90;99.90;;;;;;4956859;28;20027;-73
2021/06/04 09:28:47;;;;;;;5.30;3.20;;;16.90;99.90;;;;;;4957123;28;20512;-73
2021/06/04 09:31:19;;;;;;;4.90;3.13;;;16.80;99.90;;;;;;4951525;28;20413;-77
2021/06/04 09:33:47;;;;;;;3.58;3.05;;;17.00;99.90;;;;;;4952415;28;20031;-77
2021/06/04 09:36:16;;;;;;;4.25;3.25;;;17.20;99.90;;;;;;4954791;28;20038;-77
2021/06/04 09:38:41;;;;;;;4.05;3.38;;;17.40;99.90;;;;;;4953131;28;20506;-77
2021/06/04 09:41:36;;;;;;;3.22;2.83;;;17.40;99.90;;;;;;4951236;28;20127;-76
2021/06/04 09:44:08;;;;;;;3.17;2.80;;;17.50;99.90;;;;;;4943106;28;20035;-76
2021/06/04 09:46:41;;;;;;;3.40;2.50;;;17.20;99.90;;;;;;4957253;28;20114;-76
2021/06/04 09:49:07;;;;;;;4.53;2.88;;;17.20;99.90;;;;;;4951326;28;20074;-76
2021/06/04 09:51:39;;;;;;;3.72;2.75;;;17.30;99.90;;;;;;4955458;28;20412;-76
2021/06/04 09:54:16;;;;;;;3.15;2.83;;;17.20;99.90;;;;;;4952472;28;20031;-76
2021/06/04 09:56:42;;;;;;;4.95;3.40;;;17.10;99.90;;;;;;4955975;28;20051;-76
2021/06/04 09:59:13;;;;;;;5.07;3.38;;;17.00;99.90;;;;;;4952995;28;20139;-76
2021/06/04 10:01:46;;;;;;;5.05;3.60;;;17.10;99.90;;;;;;4956872;28;20126;-76
2021/06/04 10:04:27;;;;;;;3.40;3.10;;;17.30;99.90;;;;;;4955592;28;20272;-76
2021/06/04 10:07:19;;;;;;;3.28;2.75;;;17.40;99.90;;;;;;4961528;28;20059;-76
2021/06/04 10:09:46;;;;;;;2.90;2.50;;;17.60;99.90;;;;;;4954926;28;20451;-75
2021/06/04 10:12:33;;;;;;;3.22;2.92;;;17.70;99.90;;;;;;4964759;28;20030;-76
2021/06/04 10:15:21;;;;;;;3.05;2.58;;;17.70;99.90;;;;;;4955714;28;20110;-75
2021/06/04 10:20:26;;;;;;;5.38;3.33;;;18.40;99.90;;;;;;4957109;28;20420;-72
2021/06/04 10:23:16;;;;;;;3.33;3.03;;;18.40;99.90;;;;;;4954037;28;20023;-74
2021/06/04 10:25:58;;;;;;;4.20;3.15;;;18.40;99.90;;;;;;4954344;28;20043;-74
2021/06/04 10:28:44;;;;;;;4.70;2.85;;;18.30;99.90;;;;;;4947985;28;20500;-74
2021/06/04 10:31:16;;;;;;;3.95;2.72;;;18.20;99.90;;;;;;4953612;28;20039;-74
2021/06/04 10:34:09;;;;;;;2.85;2.20;;;18.10;99.90;;;;;;4954633;28;20058;-74
2021/06/04 10:36:38;;;;;;;5.00;2.58;;;18.20;99.90;;;;;;4958800;28;20050;-74
2021/06/04 10:39:16;;;;;;;4.22;2.60;;;18.10;99.90;;;;;;4954736;28;20385;-74
2021/06/04 10:42:00;;;;;;;3.70;3.00;;;17.90;99.90;;;;;;4959975;28;20031;-74
2021/06/04 10:44:39;;;;;;;4.40;3.00;;;17.90;99.90;;;;;;4946924;29;20039;-74
2021/06/04 10:47:40;;;;;;;3.88;2.63;;;17.90;99.90;;;;;;4961233;28;20303;-74
2021/06/04 10:50:24;;;;;;;4.78;2.58;;;17.70;99.90;;;;;;4954807;28;20034;-74
2021/06/04 10:53:10;;;;;;;3.35;2.22;;;17.60;99.90;;;;;;4950280;28;20768;-73
2021/06/04 10:56:02;;;;;;;3.60;2.50;;;17.70;99.90;;;;;;4942671;28;20023;-74
2021/06/04 10:58:47;;;;;;;3.33;1.98;;;18.10;99.90;;;;;;4959991;28;20082;-74
2021/06/04 11:01:18;;;;;;;2.55;2.35;;;18.20;99.90;;;;;;4953481;28;20545;-73
2021/06/04 11:03:47;;;;;;;2.80;2.10;;;18.30;99.90;;;;;;4953423;28;20447;-73
2021/06/04 11:06:37;;;;;;;2.20;1.83;;;18.50;99.90;;;;;;4958224;28;20035;-73
2021/06/04 11:09:22;;;;;;;3.25;2.15;;;18.40;99.90;;;;;;4960855;28;20086;-73
2021/06/04 11:12:21;;;;;;;2.92;1.98;;;18.00;99.90;;;;;;4955763;28;20118;-73
2021/06/04 11:15:10;;;;;;;3.47;2.33;;;17.90;99.90;;;;;;4947991;28;20420;-74
2021/06/04 11:17:43;;;;;;;3.08;2.10;;;17.70;99.90;;;;;;4961689;28;20121;-74
2021/06/04 11:20:15;;;;;;;2.38;2.17;;;17.60;99.90;;;;;;4957706;28;20790;-73
2021/06/04 11:23:08;;;;;;;2.83;2.38;;;17.70;99.90;;;;;;4963185;28;20031;-77
2021/06/04 11:25:39;;;;;;;3.25;2.28;;;17.60;99.90;;;;;;4955605;28;20190;-82
2021/06/04 11:28:28;;;;;;;2.95;2.08;;;17.60;99.90;;;;;;4964435;28;20077;-81
2021/06/04 11:30:57;;;;;;;3.00;2.22;;;17.80;99.90;;;;;;4955538;28;20062;-82
2021/06/04 11:33:30;;;;;;;4.30;2.25;;;17.80;99.90;;;;;;4970120;28;20022;-80
2021/06/04 11:36:23;;;;;;;3.40;2.60;;;17.80;99.90;;;;;;4965977;28;20488;-82
2021/06/04 11:39:00;;;;;;;3.97;2.83;;;17.80;99.90;;;;;;4957819;28;20063;-81
2021/06/04 11:41:32;;;;;;;4.32;2.60;;;18.00;99.90;;;;;;4960135;28;20045;-80
2021/06/04 11:44:18;;;;;;;3.53;3.00;;;18.20;99.90;;;;;;4960187;28;20102;-82
2021/06/04 11:47:24;;;;;;;4.28;3.20;;;18.30;99.90;;;;;;4960832;28;20439;-77
2021/06/04 11:49:52;;;;;;;4.35;2.85;;;18.20;99.90;;;;;;4949434;28;20043;-75
2021/06/04 11:52:46;;;;;;;6.00;3.30;;;18.00;99.90;;;;;;4959763;28;20019;-77
2021/06/04 11:55:35;;;;;;;3.67;3.03;;;17.90;99.90;;;;;;4953758;28;20122;-78
2021/06/04 11:58:28;;;;;;;3.40;2.80;;;17.70;99.90;;;;;;4955678;28;20039;-78
2021/06/04 12:01:20;;;;;;;4.50;2.65;;;17.60;99.90;;;;;;4963675;28;20047;-77
2021/06/04 12:04:10;;;;;;;7.75;2.80;;;17.90;99.90;;;;;;4950584;28;20035;-74
2021/06/04 12:06:48;;;;;;;4.05;2.38;;;18.40;99.90;;;;;;4955759;28;20028;-74
2021/06/04 12:09:32;;;;;;;3.50;2.70;;;18.70;99.90;;;;;;4952725;28;20387;-74
2021/06/04 12:12:16;;;;;;;4.15;2.80;;;18.90;99.90;;;;;;4954844;28;20086;-73
2021/06/04 12:14:54;;;;;;;3.30;2.55;;;18.70;99.90;;;;;;4952507;29;20455;-77
2021/06/04 12:17:31;;;;;;;6.78;2.95;;;18.60;99.90;;;;;;4954012;28;20044;-78
2021/06/04 12:20:15;;;;;;;6.07;3.03;;;18.20;99.90;;;;;;4952918;28;20032;-80
2021/06/04 12:22:46;;;;;;;8.20;2.97;;;17.90;99.90;;;;;;4957244;28;20054;-79
2021/06/04 12:25:12;;;;;;;3.78;3.00;;;17.60;99.90;;;;;;4943561;28;20373;-79
2021/06/04 12:27:56;;;;;;;7.50;3.30;;;17.40;99.90;;;;;;4958800;28;20122;-79
2021/06/04 12:30:54;;;;;;;4.68;3.47;;;17.20;99.90;;;;;;4945419;28;20251;-79
2021/06/04 12:33:43;;;;;;;5.72;3.40;;;17.30;99.90;;;;;;4940379;28;20035;-79
2021/06/04 12:36:31;;;;;;;4.20;3.30;;;17.20;99.90;;;;;;4947484;28;20396;-80
2021/06/04 12:39:36;;;;;;;6.38;3.30;;;17.30;99.90;;;;;;4954381;28;20023;-79
2021/06/04 12:42:18;;;;;;;5.55;3.50;;;17.40;99.90;;;;;;4957277;28;20038;-79
2021/06/04 12:44:55;;;;;;;6.28;3.45;;;17.30;99.90;;;;;;4956532;28;20111;-80
2021/06/04 12:47:41;;;;;;;6.93;3.78;;;17.20;99.90;;;;;;4960699;28;20034;-85
2021/06/04 12:50:17;;;;;;;5.80;3.58;;;17.30;99.90;;;;;;4953368;28;20133;-86
2021/06/04 12:52:43;;;;;;;5.78;3.53;;;17.20;99.90;;;;;;4962549;28;20436;-85
2021/06/04 12:55:23;;;;;;;7.28;3.58;;;17.20;99.90;;;;;;4955682;28;20105;-85
2021/06/04 12:57:50;;;;;;;7.90;3.88;;;17.20;99.90;;;;;;4959317;28;20555;-85
2021/06/04 13:00:25;;;;;;;9.05;4.03;;;17.20;99.90;;;;;;4954689;28;20419;-84
2021/06/04 13:02:55;;;;;;;5.15;3.47;;;17.20;99.90;;;;;;4975485;28;20302;-85
2021/06/04 13:05:26;;;;;;;7.85;3.47;;;17.30;99.90;;;;;;4957212;28;20034;-88
2021/06/04 13:07:55;;;;;;;6.93;3.15;;;17.40;99.90;;;;;;4961817;28;20027;-84
2021/06/04 13:10:29;;;;;;;6.80;3.28;;;17.60;99.90;;;;;;4957961;28;20496;-85
2021/06/04 13:13:13;;;;;;;8.65;2.70;;;17.60;99.90;;;;;;4963689;28;20117;-85